createdAt,value
2022-12-23T00:00:59.925Z,6.59
2022-12-23T00:03:33.850Z,6.63
2022-12-23T00:06:11.368Z,6.56
2022-12-23T00:08:46.605Z,6.67
2022-12-23T00:11:20.869Z,6.82
2022-12-23T00:14:20.093Z,6.88
2022-12-23T00:16:54.390Z,6.91
2022-12-23T00:19:26.319Z,6.95
2022-12-23T00:21:58.101Z,6.91
2022-12-23T00:24:29.971Z,6.88
2022-12-23T00:27:01.835Z,6.95
2022-12-23T00:29:34.593Z,6.98
2022-12-23T00:32:06.628Z,6.87
2022-12-23T00:34:38.373Z,6.80
2022-12-23T00:37:10.099Z,6.69
2022-12-23T00:40:04.394Z,6.65
2022-12-23T00:42:56.270Z,6.66
2022-12-23T00:45:28.666Z,6.69
2022-12-23T00:48:18.422Z,6.66
2022-12-23T00:50:52.443Z,6.54
2022-12-23T00:53:24.110Z,6.60
2022-12-23T00:55:55.840Z,6.77
2022-12-23T00:58:27.571Z,6.85
2022-12-23T01:01:17.668Z,6.79
2022-12-23T01:04:07.310Z,6.82
2022-12-23T01:06:39.160Z,6.67
2022-12-23T01:09:10.905Z,6.64
2022-12-23T01:11:43.374Z,6.72
2022-12-23T01:14:15.217Z,6.77
2022-12-23T01:16:47.390Z,6.75
2022-12-23T01:19:19.243Z,6.70
2022-12-23T01:21:51.588Z,6.75
2022-12-23T01:24:23.297Z,6.77
2022-12-23T01:26:55.223Z,6.78
2022-12-23T01:29:27.284Z,6.79
2022-12-23T01:31:59.347Z,6.83
2022-12-23T01:34:36.726Z,6.86
2022-12-23T01:37:09.474Z,6.89
2022-12-23T01:39:41.164Z,6.87
2022-12-23T01:42:33.732Z,6.85
2022-12-23T01:45:14.485Z,6.82
2022-12-23T01:47:50.694Z,6.80
2022-12-23T01:50:28.711Z,6.69
2022-12-23T01:53:07.712Z,6.72
2022-12-23T01:55:47.401Z,6.78
2022-12-23T01:58:24.069Z,6.75
2022-12-23T02:01:15.496Z,6.83
2022-12-23T02:03:50.815Z,6.87
2022-12-23T02:06:43.522Z,6.91
2022-12-23T02:09:20.461Z,6.77
2022-12-23T02:12:09.133Z,6.84
2022-12-23T02:15:16.038Z,6.93
2022-12-23T02:17:59.149Z,6.87
2022-12-23T02:21:06.770Z,6.89
2022-12-23T02:24:06.302Z,6.86
2022-12-23T02:27:08.000Z,6.90
2022-12-23T02:30:05.241Z,6.94
2022-12-23T02:32:49.276Z,6.98
2022-12-23T02:35:30.131Z,6.98
2022-12-23T02:38:10.176Z,6.97
2022-12-23T02:40:51.425Z,6.95
2022-12-23T02:43:32.128Z,6.99
2022-12-23T02:46:11.085Z,7.00
2022-12-23T02:48:49.562Z,7.00
2022-12-23T02:51:25.199Z,7.01
2022-12-23T02:54:01.031Z,6.99
2022-12-23T02:56:36.272Z,7.01
2022-12-23T02:59:12.402Z,6.89
2022-12-23T03:01:46.076Z,6.86
2022-12-23T03:04:18.113Z,6.75
2022-12-23T03:06:53.715Z,6.83
2022-12-23T03:09:35.975Z,6.75
2022-12-23T03:12:21.997Z,6.68
2022-12-23T03:15:10.235Z,6.70
2022-12-23T03:17:56.539Z,6.78
2022-12-23T03:20:35.865Z,6.90
2022-12-23T03:23:15.654Z,6.97
2022-12-23T03:25:54.501Z,7.00
2022-12-23T03:28:33.515Z,6.91
2022-12-23T03:31:10.185Z,7.01
2022-12-23T03:33:45.406Z,6.98
2022-12-23T03:36:22.439Z,6.94
2022-12-23T03:38:56.989Z,7.07
2022-12-23T03:41:34.423Z,7.10
2022-12-23T03:44:10.119Z,7.12
2022-12-23T03:46:47.238Z,7.12
2022-12-23T03:49:23.829Z,7.10
2022-12-23T03:52:01.849Z,7.10
2022-12-23T03:54:37.602Z,7.12
2022-12-23T03:57:11.853Z,7.15
2022-12-23T03:59:47.724Z,7.17
2022-12-23T04:02:26.631Z,7.18
2022-12-23T04:05:12.550Z,7.10
2022-12-23T04:07:47.463Z,7.12
2022-12-23T04:10:21.215Z,7.15
2022-12-23T04:12:53.487Z,7.08
2022-12-23T04:15:27.344Z,6.94
2022-12-23T04:17:59.946Z,7.02
2022-12-23T04:20:31.767Z,7.08
2022-12-23T04:23:03.480Z,7.10
2022-12-23T04:25:35.250Z,7.06
2022-12-23T04:28:07.210Z,7.03
2022-12-23T04:30:38.884Z,7.07
2022-12-23T04:33:13.097Z,7.00
2022-12-23T04:35:44.774Z,7.03
2022-12-23T04:38:16.539Z,7.10
2022-12-23T04:40:49.411Z,7.13
2022-12-23T04:43:19.610Z,7.14
2022-12-23T04:45:53.788Z,7.17
2022-12-23T04:48:25.403Z,7.18
2022-12-23T04:50:57.279Z,7.18
2022-12-23T04:53:29.384Z,7.17
2022-12-23T04:56:01.046Z,7.20
2022-12-23T04:58:33.351Z,7.22
2022-12-23T05:01:07.111Z,7.14
2022-12-23T05:03:39.425Z,7.16
2022-12-23T05:06:11.446Z,7.13
2022-12-23T05:08:43.247Z,7.17
2022-12-23T05:11:15.186Z,7.18
2022-12-23T05:13:47.024Z,7.18
2022-12-23T05:16:19.138Z,7.15
2022-12-23T05:18:51.155Z,7.15
2022-12-23T05:21:22.944Z,7.09
2022-12-23T05:23:54.946Z,7.07
2022-12-23T05:26:26.976Z,7.08
2022-12-23T05:28:58.698Z,7.11
2022-12-23T05:31:30.588Z,7.13
2022-12-23T05:34:06.406Z,7.13
2022-12-23T05:36:38.938Z,7.13
2022-12-23T05:39:11.457Z,7.12
2022-12-23T05:41:43.348Z,7.04
2022-12-23T05:44:15.389Z,7.06
2022-12-23T05:46:47.353Z,7.09
2022-12-23T05:49:19.221Z,7.07
2022-12-23T05:51:51.371Z,7.09
2022-12-23T05:54:23.411Z,6.99
2022-12-23T05:56:55.140Z,7.01
2022-12-23T05:59:30.931Z,7.04
2022-12-23T06:02:03.682Z,7.05
2022-12-23T06:04:35.407Z,6.98
2022-12-23T06:07:07.622Z,7.02
2022-12-23T06:09:39.342Z,6.97
2022-12-23T06:12:11.601Z,6.78
2022-12-23T06:14:43.248Z,6.85
2022-12-23T06:17:15.275Z,6.87
2022-12-23T06:19:47.338Z,6.80
2022-12-23T06:22:21.753Z,6.85
2022-12-23T06:24:53.636Z,6.72
2022-12-23T06:27:25.300Z,6.71
2022-12-23T06:29:57.558Z,6.82
2022-12-23T06:32:32.913Z,6.80
2022-12-23T06:35:11.190Z,6.73
2022-12-23T06:37:43.211Z,6.72
2022-12-23T06:40:16.171Z,6.73
2022-12-23T06:42:49.700Z,6.74
2022-12-23T06:45:25.062Z,6.70
2022-12-23T06:47:56.933Z,6.68
2022-12-23T06:50:28.640Z,6.75
2022-12-23T06:53:02.150Z,6.69
2022-12-23T06:55:34.364Z,6.67
2022-12-23T06:58:06.647Z,6.74
2022-12-23T07:00:38.582Z,6.80
2022-12-23T07:03:10.542Z,6.84
2022-12-23T07:05:42.886Z,6.77
2022-12-23T07:08:15.726Z,6.77
2022-12-23T07:10:47.625Z,6.76
2022-12-23T07:13:20.040Z,6.69
2022-12-23T07:15:51.776Z,6.77
2022-12-23T07:18:25.214Z,6.68
2022-12-23T07:21:00.170Z,6.72
2022-12-23T07:23:32.279Z,6.71
2022-12-23T07:26:04.060Z,6.75
2022-12-23T07:28:35.767Z,6.78
2022-12-23T07:31:09.615Z,6.83
2022-12-23T07:33:41.979Z,6.82
2022-12-23T07:36:14.040Z,6.86
2022-12-23T07:38:45.779Z,6.79
2022-12-23T07:41:17.497Z,6.72
2022-12-23T07:43:49.770Z,6.78
2022-12-23T07:46:21.638Z,6.75
2022-12-23T07:48:53.519Z,6.78
2022-12-23T07:51:25.364Z,6.80
2022-12-23T07:53:57.242Z,6.89
2022-12-23T07:56:29.116Z,6.88
2022-12-23T07:59:00.846Z,6.79
2022-12-23T08:01:32.627Z,6.66
2022-12-23T08:04:04.865Z,6.61
2022-12-23T08:06:38.549Z,6.70
2022-12-23T08:09:11.149Z,6.82
2022-12-23T08:11:41.414Z,6.90
2022-12-23T08:14:13.397Z,6.92
2022-12-23T08:16:45.199Z,6.90
2022-12-23T08:19:17.378Z,6.87
2022-12-23T08:21:49.577Z,6.82
2022-12-23T08:24:21.530Z,6.81
2022-12-23T08:26:53.295Z,6.87
2022-12-23T08:29:25.165Z,6.80
2022-12-23T08:31:57.076Z,6.81
2022-12-23T08:34:29.069Z,6.79
2022-12-23T08:37:01.360Z,6.80
2022-12-23T08:39:33.207Z,6.80
2022-12-23T08:42:05.221Z,6.87
2022-12-23T08:44:37.196Z,6.91
2022-12-23T08:47:08.940Z,6.85
2022-12-23T08:49:40.689Z,6.97
2022-12-23T08:52:12.625Z,6.91
2022-12-23T08:54:44.464Z,6.93
2022-12-23T08:57:16.459Z,7.00
2022-12-23T08:59:48.174Z,7.01
2022-12-23T09:02:20.215Z,7.04
2022-12-23T09:04:52.860Z,7.07
2022-12-23T09:07:24.604Z,7.07
2022-12-23T09:09:56.385Z,7.13
2022-12-23T09:12:28.137Z,7.17
2022-12-23T09:15:00.110Z,7.22
2022-12-23T09:17:31.928Z,7.26
2022-12-23T09:20:03.938Z,7.27
2022-12-23T09:22:36.185Z,7.27
2022-12-23T09:25:08.918Z,7.31
2022-12-23T09:27:39.063Z,7.31
2022-12-23T09:30:12.971Z,7.30
2022-12-23T09:32:44.813Z,7.30
2022-12-23T09:35:16.819Z,7.31
2022-12-23T09:37:48.561Z,7.34
2022-12-23T09:40:23.433Z,7.38
2022-12-23T09:43:06.098Z,7.40
2022-12-23T09:45:57.030Z,7.46
2022-12-23T09:48:34.335Z,7.40
2022-12-23T09:51:07.297Z,7.36
2022-12-23T09:53:49.317Z,7.45
2022-12-23T09:56:28.972Z,7.50
2022-12-23T09:59:12.276Z,7.55
2022-12-23T10:01:52.824Z,7.58
2022-12-23T10:04:35.622Z,7.62
2022-12-23T10:07:23.974Z,7.65
2022-12-23T10:09:58.948Z,7.59
2022-12-23T10:12:40.398Z,7.63
2022-12-23T10:15:23.236Z,7.70
2022-12-23T10:17:55.811Z,7.66
2022-12-23T10:20:37.122Z,7.62
2022-12-23T10:23:15.548Z,7.62
2022-12-23T10:25:52.617Z,7.70
2022-12-23T10:28:29.449Z,7.62
2022-12-23T10:34:19.881Z,7.54
2022-12-23T10:37:01.888Z,7.57
2022-12-23T10:39:44.785Z,7.71
2022-12-23T10:42:28.771Z,7.79
2022-12-23T10:45:17.296Z,7.81
2022-12-23T10:48:06.030Z,7.87
2022-12-23T10:50:55.990Z,7.85
2022-12-23T10:53:37.022Z,7.73
2022-12-23T10:56:10.298Z,7.72
2022-12-23T10:58:46.301Z,7.63
2022-12-23T11:01:26.585Z,7.63
2022-12-23T11:04:07.553Z,7.60
2022-12-23T11:06:45.053Z,7.66
2022-12-23T11:09:21.307Z,7.64
2022-12-23T11:11:59.607Z,7.65
2022-12-23T11:14:43.753Z,7.74
2022-12-23T11:17:28.184Z,7.67
2022-12-23T11:20:15.710Z,7.72
2022-12-23T11:22:52.795Z,7.69
2022-12-23T11:25:35.107Z,7.66
2022-12-23T11:28:14.388Z,7.68
2022-12-23T11:30:57.027Z,7.66
2022-12-23T11:33:32.547Z,7.64
2022-12-23T11:36:08.312Z,7.70
2022-12-23T11:38:50.111Z,7.65
2022-12-23T11:41:24.415Z,7.64
2022-12-23T11:43:59.376Z,7.65
2022-12-23T11:46:34.343Z,7.70
2022-12-23T11:49:17.413Z,7.78
2022-12-23T11:52:01.250Z,7.73
2022-12-23T11:54:34.308Z,7.73
2022-12-23T11:57:10.239Z,7.72
2022-12-23T11:59:44.483Z,7.72
2022-12-23T12:02:21.337Z,7.76
2022-12-23T12:05:00.496Z,7.76
2022-12-23T12:07:33.957Z,7.68
2022-12-23T12:10:12.637Z,7.54
2022-12-23T12:12:46.040Z,7.45
2022-12-23T12:15:34.516Z,7.54
2022-12-23T12:18:09.855Z,7.52
2022-12-23T12:20:45.979Z,7.42
2022-12-23T12:23:23.543Z,7.50
2022-12-23T12:26:00.656Z,7.50
2022-12-23T12:28:38.099Z,7.51
2022-12-23T12:31:23.975Z,7.58
2022-12-23T12:34:04.232Z,7.49
2022-12-23T12:36:46.240Z,7.38
2022-12-23T12:39:25.797Z,7.41
2022-12-23T12:42:05.953Z,7.35
2022-12-23T12:44:47.738Z,7.29
2022-12-23T12:47:52.811Z,7.28
2022-12-23T12:50:23.273Z,7.25
2022-12-23T12:53:01.382Z,7.25
2022-12-23T12:55:38.620Z,7.30
2022-12-23T12:58:18.887Z,7.33
2022-12-23T13:01:03.410Z,7.33
2022-12-23T13:04:05.489Z,7.35
2022-12-23T13:06:44.078Z,7.38
2022-12-23T13:09:25.997Z,7.38
2022-12-23T13:12:06.503Z,7.37
2022-12-23T13:14:51.890Z,7.36
2022-12-23T13:17:26.491Z,7.29
2022-12-23T13:20:09.496Z,7.31
2022-12-23T13:22:42.194Z,7.33
2022-12-23T13:25:15.916Z,7.38
2022-12-23T13:27:57.004Z,7.42
2022-12-23T13:30:35.271Z,7.44
2022-12-23T13:33:19.610Z,7.44
2022-12-23T13:36:06.228Z,7.37
2022-12-23T13:38:52.780Z,7.37
2022-12-23T13:41:32.051Z,7.38
2022-12-23T13:44:05.391Z,7.44
2022-12-23T13:46:46.157Z,7.48
2022-12-23T13:49:30.605Z,7.57
2022-12-23T13:52:11.251Z,7.49
2022-12-23T13:54:53.917Z,7.50
2022-12-23T13:57:40.183Z,7.54
2022-12-23T14:00:29.265Z,7.54
2022-12-23T14:03:24.214Z,7.41
2022-12-23T14:05:56.747Z,7.37
2022-12-23T14:08:41.338Z,7.34
2022-12-23T14:11:20.335Z,7.30
2022-12-23T14:13:59.953Z,7.24
2022-12-23T14:16:49.300Z,7.28
2022-12-23T14:19:35.117Z,7.37
2022-12-23T14:22:17.425Z,7.42
2022-12-23T14:25:17.244Z,7.31
2022-12-23T14:28:02.768Z,7.19
2022-12-23T14:30:38.718Z,7.31
2022-12-23T14:33:23.652Z,7.36
2022-12-23T14:36:15.281Z,7.33
2022-12-23T14:39:24.784Z,7.30
2022-12-23T14:42:03.418Z,7.25
2022-12-23T14:44:50.301Z,7.23
2022-12-23T14:47:36.057Z,7.31
2022-12-23T14:50:37.430Z,7.34
2022-12-23T14:53:23.953Z,7.40
2022-12-23T14:56:13.227Z,7.33
2022-12-23T14:59:00.546Z,7.31
2022-12-23T15:01:38.104Z,7.22
2022-12-23T15:04:18.363Z,7.20
2022-12-23T15:06:53.997Z,7.16
2022-12-23T15:09:31.442Z,7.04
2022-12-23T15:12:07.102Z,7.16
2022-12-23T15:14:44.458Z,7.15
2022-12-23T15:17:25.898Z,7.09
2022-12-23T15:20:12.949Z,7.19
2022-12-23T15:22:46.244Z,7.16
2022-12-23T15:25:24.680Z,7.14
2022-12-23T15:28:01.921Z,7.18
2022-12-23T15:30:37.727Z,7.15
2022-12-23T15:33:34.768Z,7.21
2022-12-23T15:36:05.446Z,7.35
2022-12-23T15:38:40.024Z,7.35
2022-12-23T15:41:19.561Z,7.35
2022-12-23T15:43:51.965Z,7.46
2022-12-23T15:46:30.257Z,7.52
2022-12-23T15:49:02.846Z,7.52
2022-12-23T15:54:34.754Z,7.49
2022-12-23T15:57:07.107Z,7.46
2022-12-23T15:59:40.113Z,7.46
2022-12-23T16:02:58.536Z,7.47
2022-12-23T16:05:10.756Z,7.50
2022-12-23T16:07:43.697Z,7.50
2022-12-23T16:10:19.863Z,7.50
2022-12-23T16:12:53.480Z,7.54
2022-12-23T16:15:31.995Z,7.43
2022-12-23T16:18:21.258Z,7.43
2022-12-23T16:20:56.158Z,7.49
2022-12-23T16:23:32.466Z,7.46
2022-12-23T16:26:04.934Z,7.50
2022-12-23T16:28:42.828Z,7.39
2022-12-23T16:31:18.463Z,7.34
2022-12-23T16:33:54.904Z,7.33
2022-12-23T16:36:36.337Z,7.36
2022-12-23T16:39:21.645Z,7.39
2022-12-23T16:41:53.672Z,7.37
2022-12-23T16:44:26.044Z,7.46
2022-12-23T16:46:57.939Z,7.50
2022-12-23T16:49:33.918Z,7.53
2022-12-23T16:52:09.273Z,7.52
2022-12-23T16:54:42.495Z,7.50
2022-12-23T16:57:14.200Z,7.49
2022-12-23T16:59:46.913Z,7.33
2022-12-23T17:02:19.432Z,7.26
2022-12-23T17:04:51.327Z,7.13
2022-12-23T17:07:24.276Z,7.10
2022-12-23T17:09:56.371Z,7.14
2022-12-23T17:12:28.132Z,7.26
2022-12-23T17:15:00.031Z,7.23
2022-12-23T17:17:32.211Z,7.16
2022-12-23T17:20:04.421Z,7.20
2022-12-23T17:22:37.135Z,7.14
2022-12-23T17:25:10.946Z,7.25
2022-12-23T17:27:43.175Z,7.27
2022-12-23T17:30:19.573Z,7.31
2022-12-23T17:32:55.303Z,7.19
2022-12-23T17:35:27.789Z,7.11
2022-12-23T17:37:58.246Z,7.15
2022-12-23T17:40:30.307Z,7.26
2022-12-23T17:43:02.146Z,7.36
2022-12-23T17:45:34.079Z,7.42
2022-12-23T17:48:06.840Z,7.44
2022-12-23T17:50:37.207Z,7.47
2022-12-23T17:53:09.303Z,7.65
2022-12-23T17:55:41.250Z,7.50
2022-12-23T17:58:14.326Z,7.44
2022-12-23T18:00:45.034Z,7.44
2022-12-23T18:03:24.307Z,7.43
2022-12-23T18:06:01.575Z,7.42
2022-12-23T18:08:34.033Z,7.43
2022-12-23T18:11:07.922Z,7.48
2022-12-23T18:13:39.747Z,7.49
2022-12-23T18:16:13.681Z,7.48
2022-12-23T18:18:47.157Z,7.51
2022-12-23T18:21:23.683Z,7.51
2022-12-23T18:23:58.329Z,7.48
2022-12-23T18:26:30.191Z,7.48
2022-12-23T18:29:01.883Z,7.48
2022-12-23T18:31:33.869Z,7.31
2022-12-23T18:34:05.707Z,7.40
2022-12-23T18:36:37.451Z,7.41
2022-12-23T18:39:09.261Z,7.43
2022-12-23T18:41:41.859Z,7.32
2022-12-23T18:44:20.206Z,7.31
2022-12-23T18:46:52.282Z,7.38
2022-12-23T18:49:24.100Z,7.41
2022-12-23T18:51:56.238Z,7.45
2022-12-23T18:54:28.279Z,7.41
2022-12-23T18:57:02.491Z,7.40
2022-12-23T18:59:37.589Z,7.42
2022-12-23T19:02:10.672Z,7.28
2022-12-23T19:04:43.005Z,7.19
2022-12-23T19:07:15.017Z,7.07
2022-12-23T19:09:47.259Z,7.07
2022-12-23T19:12:19.881Z,7.15
2022-12-23T19:14:51.651Z,7.28
2022-12-23T19:17:23.430Z,7.37
2022-12-23T19:19:55.281Z,7.35
2022-12-23T19:22:27.957Z,7.37
2022-12-23T19:25:05.909Z,7.42
2022-12-23T19:27:39.730Z,7.47
2022-12-23T19:30:13.759Z,7.48
2022-12-23T19:32:45.873Z,7.49
2022-12-23T19:35:17.629Z,7.45
2022-12-23T19:37:49.426Z,7.45
2022-12-23T19:40:21.511Z,7.48
2022-12-23T19:42:53.843Z,7.48
2022-12-23T19:45:28.489Z,7.48
2022-12-23T19:48:01.927Z,7.50
2022-12-23T19:50:33.714Z,7.50
2022-12-23T19:53:05.471Z,7.52
2022-12-23T19:55:37.300Z,7.50
2022-12-23T19:58:09.073Z,7.50
2022-12-23T20:00:40.755Z,7.49
2022-12-23T20:03:13.143Z,7.50
2022-12-23T20:05:50.734Z,7.48
2022-12-23T20:08:22.430Z,9.14
2022-12-23T20:11:02.515Z,8.12
2022-12-23T20:13:34.886Z,7.83
2022-12-23T20:16:08.690Z,7.73
2022-12-23T20:18:40.748Z,7.67
2022-12-23T20:21:12.742Z,7.58
2022-12-23T20:23:44.514Z,7.60
2022-12-23T20:26:17.789Z,7.59
2022-12-23T20:28:50.845Z,7.57
2022-12-23T20:31:26.126Z,7.58
2022-12-23T20:33:59.770Z,7.60
2022-12-23T20:36:36.474Z,7.59
2022-12-23T20:39:09.515Z,7.61
2022-12-23T20:41:40.035Z,7.57
2022-12-23T20:47:05.415Z,7.49
2022-12-23T20:49:38.190Z,7.49
2022-12-23T20:52:10.263Z,7.47
2022-12-23T20:54:44.596Z,7.45
2022-12-23T20:57:17.782Z,7.43
2022-12-23T20:59:50.280Z,7.45
2022-12-23T21:02:21.672Z,7.43
2022-12-23T21:04:54.259Z,7.42
2022-12-23T21:07:28.722Z,7.45
2022-12-23T21:10:01.164Z,7.48
2022-12-23T21:12:33.551Z,7.49
2022-12-23T21:15:05.512Z,7.49
2022-12-23T21:17:37.920Z,7.44
2022-12-23T21:20:12.017Z,7.45
2022-12-23T21:22:43.959Z,7.41
2022-12-23T21:25:15.881Z,7.36
2022-12-23T21:27:48.013Z,7.40
2022-12-23T21:30:20.457Z,7.41
2022-12-23T21:32:53.145Z,7.39
2022-12-23T21:35:25.919Z,7.37
2022-12-23T21:37:58.216Z,7.39
2022-12-23T21:40:30.693Z,7.32
2022-12-23T21:43:06.886Z,7.40
2022-12-23T21:45:41.486Z,7.33
2022-12-23T21:48:12.031Z,7.29
2022-12-23T21:50:44.340Z,7.25
2022-12-23T21:53:16.562Z,7.25
2022-12-23T21:55:48.530Z,7.30
2022-12-23T21:58:22.227Z,7.34
2022-12-23T22:00:54.037Z,7.34
2022-12-23T22:03:26.687Z,7.37
2022-12-23T22:06:10.442Z,7.40
2022-12-23T22:08:46.936Z,7.41
2022-12-23T22:11:21.563Z,7.39
2022-12-23T22:13:54.060Z,7.39
2022-12-23T22:16:28.249Z,7.38
2022-12-23T22:19:02.675Z,7.38
2022-12-23T22:21:36.668Z,7.41
2022-12-23T22:24:09.687Z,7.41
2022-12-23T22:26:42.370Z,7.40
2022-12-23T22:29:14.825Z,7.43
2022-12-23T22:31:49.006Z,7.40
2022-12-23T22:34:23.028Z,7.36
2022-12-23T22:36:56.365Z,7.32
2022-12-23T22:39:28.605Z,7.28
2022-12-23T22:42:00.458Z,7.30
2022-12-23T22:44:32.545Z,7.33
2022-12-23T22:47:03.492Z,7.29
2022-12-23T22:49:36.280Z,7.30
2022-12-23T22:52:10.512Z,7.34
2022-12-23T22:54:42.549Z,7.34
2022-12-23T22:57:14.728Z,7.31
2022-12-23T22:59:46.736Z,7.27
2022-12-23T23:02:18.453Z,7.31
2022-12-23T23:04:50.617Z,7.28
2022-12-23T23:07:22.468Z,7.20
2022-12-23T23:09:54.131Z,7.22
2022-12-23T23:12:25.876Z,7.16
2022-12-23T23:14:57.578Z,7.05
2022-12-23T23:17:31.140Z,7.14
2022-12-23T23:20:03.271Z,7.17
2022-12-23T23:22:35.195Z,7.17
2022-12-23T23:25:08.219Z,7.17
2022-12-23T23:27:40.036Z,7.20
2022-12-23T23:30:13.405Z,7.17
2022-12-23T23:32:45.152Z,7.15
2022-12-23T23:35:17.169Z,7.19
2022-12-23T23:37:48.894Z,7.08
2022-12-23T23:40:20.908Z,7.08
2022-12-23T23:42:52.652Z,7.07
2022-12-23T23:45:24.391Z,7.06
2022-12-23T23:47:56.594Z,7.06
2022-12-23T23:50:28.379Z,7.06
2022-12-23T23:53:00.227Z,7.05
2022-12-23T23:55:31.947Z,7.02
2022-12-23T23:58:04.315Z,7.02
